Terminal Aerodrome Forecast
Issued by NWS

Current Version | Previous Version | Text Only | Print | Product List | Glossary On
Versions: 1 2 3 4 5 6 7 8 9 10 11 12 13 14 15 16 17 18
000
FTUS44 KEPZ 301720
TAFTCS
TAF
KTCS 301720Z 3018/3118 05008KT P6SM FEW030 SCT200
     FM302100 17010KT P6SM VCTS SCT060CB BKN120
     FM310300 26007KT P6SM SCT100 SCT250
     FM310600 31005KT P6SM FEW100 SCT250=

USA.gov is the U.S. government's official web portal to all federal, state and local government web resources and services.